📊 Raw Sensor Data
Showing records 40676 to 40700 of 84,968 total
| ID | Distance (ft) | Battery V | Battery A | Int Temp (°F) | Int Humid (%) | Ext Temp (°F) | Solar V | RSSI | SNR | Time Stamp |
|---|---|---|---|---|---|---|---|---|---|---|
| 44305 | 15.9 | 3.97 | 0 | 82 | 42 | 80 | 5.10 | -72 | 7 | 06/23/2025 10:45 AM |
| 44304 | 15.9 | 3.94 | 0 | 81 | 42 | 85 | 5.10 | -71 | 7 | 06/23/2025 10:30 AM |
| 44303 | 15.9 | 3.94 | 0 | 79 | 42 | 83 | 5.10 | -71 | 7 | 06/23/2025 10:15 AM |
| 44302 | 15.9 | 3.94 | 0 | 77 | 43 | 77 | 5.10 | -73 | 8 | 06/23/2025 10:00 AM |
| 44301 | 15.9 | 3.94 | 0 | 77 | 42 | 74 | 5.10 | -73 | 8 | 06/23/2025 09:45 AM |
| 44300 | 15.9 | 3.94 | 0 | 76 | 42 | 77 | 5.10 | -70 | 8 | 06/23/2025 09:30 AM |
| 44299 | 15.9 | 3.94 | 0 | 74 | 43 | 79 | 5.10 | -70 | 7 | 06/23/2025 09:15 AM |
| 44298 | 15.9 | 3.94 | 0 | 73 | 43 | 76 | 5.10 | -69 | 8 | 06/23/2025 09:00 AM |
| 44297 | 15.8 | 3.94 | 0 | 71 | 43 | 76 | 5.10 | -70 | 8 | 06/23/2025 08:45 AM |
| 44296 | 15.9 | 4.00 | 0 | 70 | 42 | 73 | 5.10 | -70 | 8 | 06/23/2025 08:30 AM |
| 44295 | 15.8 | 3.94 | 0 | 68 | 42 | 77 | 5.10 | -69 | 8 | 06/23/2025 08:15 AM |
| 44294 | 15.8 | 3.94 | 0 | 66 | 42 | 75 | 5.10 | -71 | 8 | 06/23/2025 08:00 AM |
| 44293 | 15.8 | 4.08 | 58 | 65 | 41 | 72 | 4.50 | -69 | 8 | 06/23/2025 07:45 AM |
| 44292 | 15.7 | 4.01 | 45 | 62 | 41 | 70 | 4.50 | -70 | 8 | 06/23/2025 07:30 AM |
| 44291 | 15.7 | 4.01 | 8 | 60 | 40 | 68 | 4.50 | -69 | 8 | 06/23/2025 07:15 AM |
| 44290 | 15.6 | 3.97 | 0 | 58 | 40 | 68 | 4.50 | -70 | 8 | 06/23/2025 07:00 AM |
| 44289 | 15.6 | 3.96 | 8 | 55 | 41 | 62 | 4.50 | -69 | 8 | 06/23/2025 06:45 AM |
| 44288 | 15.5 | 3.95 | 5 | 52 | 41 | 59 | 4.60 | -69 | 8 | 06/23/2025 06:30 AM |
| 44287 | 15.5 | 3.88 | 0 | 50 | 42 | 55 | 4.50 | -69 | 8 | 06/23/2025 06:15 AM |
| 44286 | 15.4 | 3.87 | -6 | 49 | 42 | 52 | 4.50 | -69 | 7 | 06/23/2025 06:00 AM |
| 44285 | 15.4 | 3.86 | -10 | 49 | 42 | 50 | 4.20 | -69 | 8 | 06/23/2025 05:45 AM |
| 44284 | 15.4 | 3.87 | -5 | 49 | 43 | 51 | 0.80 | -70 | 8 | 06/23/2025 05:30 AM |
| 44283 | 15.4 | 3.87 | -5 | 49 | 42 | 50 | 0.00 | -70 | 8 | 06/23/2025 05:15 AM |
| 44282 | 15.4 | 3.87 | -5 | 49 | 43 | 51 | 0.00 | -70 | 8 | 06/23/2025 05:00 AM |
| 44281 | 15.4 | 3.87 | -5 | 50 | 43 | 51 | 0.00 | -70 | 9 | 06/23/2025 04:45 AM |